Terminal Aerodrome Forecast
Issued by NWS

Home | Current Version | Previous Version | Text Only | Print | Product List | Glossary Off
Versions: 1 2 3 4 5 6 7 8 9 10 11 12 13 14 15 16 17 18 19 20

000
FTUS43 KMPX 202154 AAC
TAFRNH
TAF AMD
KRNH 202154Z 2022/2118 32012G18KT P6SM VCSH SCT018 BKN025 OVC035
      TEMPO 2022/2024 SCT025 BKN035
     FM210000 32012KT P6SM BKN030
     FM210300 34008KT P6SM BKN035
     FM210500 33006KT P6SM SCT035=

USA.gov is the U.S. government's official web portal to all federal, state and local government web resources and services.